sensor_id;sensor_type;location;lat;lon;timestamp;temperature;humidity
30381;DHT22;17169;50.966;11.038;2023-05-07T00:02:30;13.10;99.90
30381;DHT22;17169;50.966;11.038;2023-05-07T00:05:34;13.10;99.90
30381;DHT22;17169;50.966;11.038;2023-05-07T00:08:37;13.10;99.90
30381;DHT22;17169;50.966;11.038;2023-05-07T00:11:39;13.10;99.90
30381;DHT22;17169;50.966;11.038;2023-05-07T00:14:42;13.10;99.90
30381;DHT22;17169;50.966;11.038;2023-05-07T00:17:44;13.10;99.90
30381;DHT22;17169;50.966;11.038;2023-05-07T00:20:48;13.00;99.90
30381;DHT22;17169;50.966;11.038;2023-05-07T00:23:50;13.00;99.90
30381;DHT22;17169;50.966;11.038;2023-05-07T00:26:52;13.00;99.90
30381;DHT22;17169;50.966;11.038;2023-05-07T00:29:55;12.90;99.90
30381;DHT22;17169;50.966;11.038;2023-05-07T00:32:57;12.90;99.90
30381;DHT22;17169;50.966;11.038;2023-05-07T00:36:01;12.80;99.90
30381;DHT22;17169;50.966;11.038;2023-05-07T00:39:03;12.80;99.90
30381;DHT22;17169;50.966;11.038;2023-05-07T00:42:05;12.80;99.90
30381;DHT22;17169;50.966;11.038;2023-05-07T00:45:09;12.80;99.90
30381;DHT22;17169;50.966;11.038;2023-05-07T00:48:12;12.80;99.90
30381;DHT22;17169;50.966;11.038;2023-05-07T00:51:17;12.80;99.90
30381;DHT22;17169;50.966;11.038;2023-05-07T00:54:19;12.90;99.90
30381;DHT22;17169;50.966;11.038;2023-05-07T00:57:24;12.80;99.90
30381;DHT22;17169;50.966;11.038;2023-05-07T01:00:26;12.80;99.90
30381;DHT22;17169;50.966;11.038;2023-05-07T01:03:29;12.80;99.90
30381;DHT22;17169;50.966;11.038;2023-05-07T01:06:33;12.80;99.90
30381;DHT22;17169;50.966;11.038;2023-05-07T01:09:36;12.80;99.90
30381;DHT22;17169;50.966;11.038;2023-05-07T01:12:40;12.80;99.90
30381;DHT22;17169;50.966;11.038;2023-05-07T01:15:43;12.80;99.90
30381;DHT22;17169;50.966;11.038;2023-05-07T01:18:46;12.80;99.90
30381;DHT22;17169;50.966;11.038;2023-05-07T01:21:51;12.70;99.90
30381;DHT22;17169;50.966;11.038;2023-05-07T01:24:59;12.70;99.90
30381;DHT22;17169;50.966;11.038;2023-05-07T01:28:02;12.70;99.90
30381;DHT22;17169;50.966;11.038;2023-05-07T01:31:04;12.70;99.90
30381;DHT22;17169;50.966;11.038;2023-05-07T01:34:08;12.70;99.90
30381;DHT22;17169;50.966;11.038;2023-05-07T01:37:12;12.70;99.90
30381;DHT22;17169;50.966;11.038;2023-05-07T01:40:16;12.70;99.90
30381;DHT22;17169;50.966;11.038;2023-05-07T01:43:19;12.70;99.90
30381;DHT22;17169;50.966;11.038;2023-05-07T01:46:21;12.70;99.90
30381;DHT22;17169;50.966;11.038;2023-05-07T01:49:24;12.70;99.90
30381;DHT22;17169;50.966;11.038;2023-05-07T01:52:27;12.70;99.90
30381;DHT22;17169;50.966;11.038;2023-05-07T01:55:31;12.70;99.90
30381;DHT22;17169;50.966;11.038;2023-05-07T01:58:34;12.70;99.90
30381;DHT22;17169;50.966;11.038;2023-05-07T02:01:36;12.70;99.90
30381;DHT22;17169;50.966;11.038;2023-05-07T02:04:38;12.70;99.90
30381;DHT22;17169;50.966;11.038;2023-05-07T02:07:41;12.70;99.90
30381;DHT22;17169;50.966;11.038;2023-05-07T02:10:44;12.80;99.90
30381;DHT22;17169;50.966;11.038;2023-05-07T02:13:47;12.70;99.90
30381;DHT22;17169;50.966;11.038;2023-05-07T02:16:49;12.70;99.90
30381;DHT22;17169;50.966;11.038;2023-05-07T02:19:52;12.70;99.90
30381;DHT22;17169;50.966;11.038;2023-05-07T02:22:54;12.70;99.90
30381;DHT22;17169;50.966;11.038;2023-05-07T02:25:58;12.70;99.90
30381;DHT22;17169;50.966;11.038;2023-05-07T02:29:00;12.70;99.90
30381;DHT22;17169;50.966;11.038;2023-05-07T02:32:03;12.70;99.90
30381;DHT22;17169;50.966;11.038;2023-05-07T02:35:06;12.70;99.90
30381;DHT22;17169;50.966;11.038;2023-05-07T02:38:08;12.70;99.90
30381;DHT22;17169;50.966;11.038;2023-05-07T02:41:13;12.70;99.90
30381;DHT22;17169;50.966;11.038;2023-05-07T02:44:15;12.70;99.90
30381;DHT22;17169;50.966;11.038;2023-05-07T02:47:18;12.70;99.90
30381;DHT22;17169;50.966;11.038;2023-05-07T02:50:20;12.70;99.90
30381;DHT22;17169;50.966;11.038;2023-05-07T02:53:22;12.70;99.90
30381;DHT22;17169;50.966;11.038;2023-05-07T02:56:28;12.70;99.90
30381;DHT22;17169;50.966;11.038;2023-05-07T02:59:31;12.70;99.90
30381;DHT22;17169;50.966;11.038;2023-05-07T03:02:33;12.60;99.90
30381;DHT22;17169;50.966;11.038;2023-05-07T03:05:36;12.60;99.90
30381;DHT22;17169;50.966;11.038;2023-05-07T03:08:38;12.60;99.90
30381;DHT22;17169;50.966;11.038;2023-05-07T03:11:42;12.60;99.90
30381;DHT22;17169;50.966;11.038;2023-05-07T03:14:44;12.60;99.90
30381;DHT22;17169;50.966;11.038;2023-05-07T03:17:47;12.60;99.90
30381;DHT22;17169;50.966;11.038;2023-05-07T03:20:49;12.60;99.90
30381;DHT22;17169;50.966;11.038;2023-05-07T03:23:51;12.50;99.90
30381;DHT22;17169;50.966;11.038;2023-05-07T03:26:55;12.50;99.90
30381;DHT22;17169;50.966;11.038;2023-05-07T03:29:58;12.50;99.90
30381;DHT22;17169;50.966;11.038;2023-05-07T03:33:01;12.50;99.90
30381;DHT22;17169;50.966;11.038;2023-05-07T03:36:03;12.50;99.90
30381;DHT22;17169;50.966;11.038;2023-05-07T03:39:06;12.40;99.90
30381;DHT22;17169;50.966;11.038;2023-05-07T03:42:10;12.40;99.90
30381;DHT22;17169;50.966;11.038;2023-05-07T03:45:13;12.40;99.90
30381;DHT22;17169;50.966;11.038;2023-05-07T03:48:15;12.30;99.90
30381;DHT22;17169;50.966;11.038;2023-05-07T03:51:17;12.40;99.90
30381;DHT22;17169;50.966;11.038;2023-05-07T03:54:20;12.40;99.90
30381;DHT22;17169;50.966;11.038;2023-05-07T03:57:24;12.30;99.90
30381;DHT22;17169;50.966;11.038;2023-05-07T04:00:26;12.30;99.90
30381;DHT22;17169;50.966;11.038;2023-05-07T04:03:29;12.30;99.90
30381;DHT22;17169;50.966;11.038;2023-05-07T04:06:31;12.30;99.90
30381;DHT22;17169;50.966;11.038;2023-05-07T04:09:34;12.30;99.90
30381;DHT22;17169;50.966;11.038;2023-05-07T04:12:38;12.30;99.90
30381;DHT22;17169;50.966;11.038;2023-05-07T04:15:40;12.30;99.90
30381;DHT22;17169;50.966;11.038;2023-05-07T04:18:43;12.30;99.90
30381;DHT22;17169;50.966;11.038;2023-05-07T04:21:45;12.30;99.90
30381;DHT22;17169;50.966;11.038;2023-05-07T04:24:48;12.30;99.90
30381;DHT22;17169;50.966;11.038;2023-05-07T04:27:52;12.30;99.90
30381;DHT22;17169;50.966;11.038;2023-05-07T04:30:54;12.20;99.90
30381;DHT22;17169;50.966;11.038;2023-05-07T04:33:56;12.30;99.90
30381;DHT22;17169;50.966;11.038;2023-05-07T04:36:59;12.30;99.90
30381;DHT22;17169;50.966;11.038;2023-05-07T04:40:01;12.30;99.90
30381;DHT22;17169;50.966;11.038;2023-05-07T04:43:06;12.30;99.90
30381;DHT22;17169;50.966;11.038;2023-05-07T04:46:10;12.40;99.90
30381;DHT22;17169;50.966;11.038;2023-05-07T04:49:12;12.40;99.90
30381;DHT22;17169;50.966;11.038;2023-05-07T04:52:15;12.40;99.90
30381;DHT22;17169;50.966;11.038;2023-05-07T04:55:17;12.40;99.90
30381;DHT22;17169;50.966;11.038;2023-05-07T04:58:21;12.50;99.90
30381;DHT22;17169;50.966;11.038;2023-05-07T05:01:24;12.50;99.90
30381;DHT22;17169;50.966;11.038;2023-05-07T05:04:26;12.50;99.90
30381;DHT22;17169;50.966;11.038;2023-05-07T05:07:29;12.50;99.90
30381;DHT22;17169;50.966;11.038;2023-05-07T05:10:31;12.50;99.90
30381;DHT22;17169;50.966;11.038;2023-05-07T05:13:35;12.50;99.90
30381;DHT22;17169;50.966;11.038;2023-05-07T05:16:37;12.50;99.90
30381;DHT22;17169;50.966;11.038;2023-05-07T05:19:40;12.50;99.90
30381;DHT22;17169;50.966;11.038;2023-05-07T05:22:42;12.50;99.90
30381;DHT22;17169;50.966;11.038;2023-05-07T05:25:45;12.50;99.90
30381;DHT22;17169;50.966;11.038;2023-05-07T05:28:48;12.50;99.90
30381;DHT22;17169;50.966;11.038;2023-05-07T05:31:51;12.60;99.90
30381;DHT22;17169;50.966;11.038;2023-05-07T05:34:53;12.50;99.90
30381;DHT22;17169;50.966;11.038;2023-05-07T05:37:56;12.50;99.90
30381;DHT22;17169;50.966;11.038;2023-05-07T05:40:59;12.60;99.90
30381;DHT22;17169;50.966;11.038;2023-05-07T05:44:02;12.50;99.90
30381;DHT22;17169;50.966;11.038;2023-05-07T05:47:05;12.60;99.90
30381;DHT22;17169;50.966;11.038;2023-05-07T05:50:07;12.50;99.90
30381;DHT22;17169;50.966;11.038;2023-05-07T05:53:10;12.50;99.90
30381;DHT22;17169;50.966;11.038;2023-05-07T05:56:12;12.50;99.90
30381;DHT22;17169;50.966;11.038;2023-05-07T05:59:16;12.50;99.90
30381;DHT22;17169;50.966;11.038;2023-05-07T06:02:18;12.50;99.90
30381;DHT22;17169;50.966;11.038;2023-05-07T06:05:21;12.50;99.90
30381;DHT22;17169;50.966;11.038;2023-05-07T06:08:24;12.40;99.90
30381;DHT22;17169;50.966;11.038;2023-05-07T06:11:26;12.40;99.90
30381;DHT22;17169;50.966;11.038;2023-05-07T06:14:30;12.40;99.90
30381;DHT22;17169;50.966;11.038;2023-05-07T06:17:32;12.40;99.90
30381;DHT22;17169;50.966;11.038;2023-05-07T06:20:35;12.40;99.90
30381;DHT22;17169;50.966;11.038;2023-05-07T06:23:37;12.40;99.90
30381;DHT22;17169;50.966;11.038;2023-05-07T06:26:41;12.30;99.90
30381;DHT22;17169;50.966;11.038;2023-05-07T06:29:47;12.30;99.90
30381;DHT22;17169;50.966;11.038;2023-05-07T06:32:50;12.30;99.90
30381;DHT22;17169;50.966;11.038;2023-05-07T06:35:52;12.30;99.90
30381;DHT22;17169;50.966;11.038;2023-05-07T06:38:55;12.30;99.90
30381;DHT22;17169;50.966;11.038;2023-05-07T06:41:57;12.30;99.90
30381;DHT22;17169;50.966;11.038;2023-05-07T06:45:01;12.30;99.90
30381;DHT22;17169;50.966;11.038;2023-05-07T06:48:04;12.30;99.90
30381;DHT22;17169;50.966;11.038;2023-05-07T06:51:07;12.30;99.90
30381;DHT22;17169;50.966;11.038;2023-05-07T06:54:09;12.30;99.90
30381;DHT22;17169;50.966;11.038;2023-05-07T06:57:12;12.30;99.90
30381;DHT22;17169;50.966;11.038;2023-05-07T07:00:16;12.40;99.90
30381;DHT22;17169;50.966;11.038;2023-05-07T07:03:19;12.40;99.90
30381;DHT22;17169;50.966;11.038;2023-05-07T07:06:22;12.40;99.90
30381;DHT22;17169;50.966;11.038;2023-05-07T07:09:24;12.40;99.90
30381;DHT22;17169;50.966;11.038;2023-05-07T07:12:26;12.40;99.90
30381;DHT22;17169;50.966;11.038;2023-05-07T07:15:31;12.40;99.90
30381;DHT22;17169;50.966;11.038;2023-05-07T07:18:33;12.40;99.90
30381;DHT22;17169;50.966;11.038;2023-05-07T07:21:36;12.40;99.90
30381;DHT22;17169;50.966;11.038;2023-05-07T07:24:39;12.40;99.90
30381;DHT22;17169;50.966;11.038;2023-05-07T07:27:41;12.30;99.90
30381;DHT22;17169;50.966;11.038;2023-05-07T07:30:45;12.30;99.90
30381;DHT22;17169;50.966;11.038;2023-05-07T07:33:47;12.40;99.90
30381;DHT22;17169;50.966;11.038;2023-05-07T07:36:51;12.50;99.90
30381;DHT22;17169;50.966;11.038;2023-05-07T07:39:53;12.50;99.90
30381;DHT22;17169;50.966;11.038;2023-05-07T07:42:56;12.60;99.90
30381;DHT22;17169;50.966;11.038;2023-05-07T07:46:00;12.50;99.90
30381;DHT22;17169;50.966;11.038;2023-05-07T07:49:02;12.50;99.90
30381;DHT22;17169;50.966;11.038;2023-05-07T07:52:05;12.50;99.90
30381;DHT22;17169;50.966;11.038;2023-05-07T07:55:08;12.50;99.90
30381;DHT22;17169;50.966;11.038;2023-05-07T07:58:11;12.50;99.90
30381;DHT22;17169;50.966;11.038;2023-05-07T08:01:14;12.40;99.90
30381;DHT22;17169;50.966;11.038;2023-05-07T08:04:18;12.40;99.90
30381;DHT22;17169;50.966;11.038;2023-05-07T08:07:20;12.40;99.90
30381;DHT22;17169;50.966;11.038;2023-05-07T08:10:23;12.40;99.90
30381;DHT22;17169;50.966;11.038;2023-05-07T08:13:26;12.50;99.90
30381;DHT22;17169;50.966;11.038;2023-05-07T08:16:30;12.50;99.90
30381;DHT22;17169;50.966;11.038;2023-05-07T08:19:32;12.40;99.90
30381;DHT22;17169;50.966;11.038;2023-05-07T08:22:35;12.50;99.90
30381;DHT22;17169;50.966;11.038;2023-05-07T08:25:38;12.50;99.90
30381;DHT22;17169;50.966;11.038;2023-05-07T08:28:41;12.50;99.90
30381;DHT22;17169;50.966;11.038;2023-05-07T08:31:44;12.50;99.90
30381;DHT22;17169;50.966;11.038;2023-05-07T08:34:47;12.40;99.90
30381;DHT22;17169;50.966;11.038;2023-05-07T08:37:49;12.50;99.90
30381;DHT22;17169;50.966;11.038;2023-05-07T08:40:52;12.50;99.90
30381;DHT22;17169;50.966;11.038;2023-05-07T08:43:57;12.50;99.90
30381;DHT22;17169;50.966;11.038;2023-05-07T08:47:02;12.50;99.90
30381;DHT22;17169;50.966;11.038;2023-05-07T08:50:05;12.50;99.90
30381;DHT22;17169;50.966;11.038;2023-05-07T08:53:08;12.50;99.90
30381;DHT22;17169;50.966;11.038;2023-05-07T08:56:11;12.60;99.90
30381;DHT22;17169;50.966;11.038;2023-05-07T08:59:14;12.60;99.90
30381;DHT22;17169;50.966;11.038;2023-05-07T09:02:18;12.60;99.90
30381;DHT22;17169;50.966;11.038;2023-05-07T09:05:20;12.70;99.90
30381;DHT22;17169;50.966;11.038;2023-05-07T09:08:25;12.80;99.90
30381;DHT22;17169;50.966;11.038;2023-05-07T09:11:28;12.80;99.90
30381;DHT22;17169;50.966;11.038;2023-05-07T09:14:30;12.90;99.90
30381;DHT22;17169;50.966;11.038;2023-05-07T09:17:34;12.90;99.90
30381;DHT22;17169;50.966;11.038;2023-05-07T09:20:36;12.90;99.90
30381;DHT22;17169;50.966;11.038;2023-05-07T09:23:39;13.00;99.90
30381;DHT22;17169;50.966;11.038;2023-05-07T09:26:42;13.00;99.90
30381;DHT22;17169;50.966;11.038;2023-05-07T09:29:44;13.10;99.90
30381;DHT22;17169;50.966;11.038;2023-05-07T09:32:48;13.00;99.90
30381;DHT22;17169;50.966;11.038;2023-05-07T09:35:51;13.00;99.90
30381;DHT22;17169;50.966;11.038;2023-05-07T09:38:53;13.00;99.90
30381;DHT22;17169;50.966;11.038;2023-05-07T09:41:57;13.00;99.90
30381;DHT22;17169;50.966;11.038;2023-05-07T09:45:01;13.00;99.90
30381;DHT22;17169;50.966;11.038;2023-05-07T09:48:06;13.10;99.90
30381;DHT22;17169;50.966;11.038;2023-05-07T09:51:18;13.10;99.90
30381;DHT22;17169;50.966;11.038;2023-05-07T09:54:25;13.20;99.90
30381;DHT22;17169;50.966;11.038;2023-05-07T09:57:28;13.30;99.90
30381;DHT22;17169;50.966;11.038;2023-05-07T10:00:31;13.40;99.90
30381;DHT22;17169;50.966;11.038;2023-05-07T10:03:36;13.60;99.90
30381;DHT22;17169;50.966;11.038;2023-05-07T10:06:39;13.70;99.90
30381;DHT22;17169;50.966;11.038;2023-05-07T10:09:42;13.80;99.90
30381;DHT22;17169;50.966;11.038;2023-05-07T10:12:45;13.80;99.90
30381;DHT22;17169;50.966;11.038;2023-05-07T10:15:49;13.80;99.90
30381;DHT22;17169;50.966;11.038;2023-05-07T10:18:55;13.80;99.90
30381;DHT22;17169;50.966;11.038;2023-05-07T10:22:03;13.70;99.90
30381;DHT22;17169;50.966;11.038;2023-05-07T10:25:14;13.60;99.90
30381;DHT22;17169;50.966;11.038;2023-05-07T10:28:17;13.60;99.90
30381;DHT22;17169;50.966;11.038;2023-05-07T10:31:37;13.60;99.90
30381;DHT22;17169;50.966;11.038;2023-05-07T10:34:45;13.60;99.90
30381;DHT22;17169;50.966;11.038;2023-05-07T10:37:49;13.60;99.90
30381;DHT22;17169;50.966;11.038;2023-05-07T10:40:52;13.60;99.90
30381;DHT22;17169;50.966;11.038;2023-05-07T10:43:54;13.70;99.90
30381;DHT22;17169;50.966;11.038;2023-05-07T10:47:05;13.70;99.90
30381;DHT22;17169;50.966;11.038;2023-05-07T10:50:23;13.70;99.90
30381;DHT22;17169;50.966;11.038;2023-05-07T10:53:26;13.80;99.90
30381;DHT22;17169;50.966;11.038;2023-05-07T10:56:29;13.80;99.90
30381;DHT22;17169;50.966;11.038;2023-05-07T10:59:36;13.90;99.90
30381;DHT22;17169;50.966;11.038;2023-05-07T11:03:06;14.00;99.90
30381;DHT22;17169;50.966;11.038;2023-05-07T11:06:11;14.10;99.90
30381;DHT22;17169;50.966;11.038;2023-05-07T11:09:14;14.10;99.90
30381;DHT22;17169;50.966;11.038;2023-05-07T11:12:17;14.10;99.90
30381;DHT22;17169;50.966;11.038;2023-05-07T11:15:40;14.10;99.90
30381;DHT22;17169;50.966;11.038;2023-05-07T11:18:48;14.20;99.90
30381;DHT22;17169;50.966;11.038;2023-05-07T11:21:52;14.20;99.90
30381;DHT22;17169;50.966;11.038;2023-05-07T11:24:55;14.30;99.90
30381;DHT22;17169;50.966;11.038;2023-05-07T11:28:04;14.30;99.90
30381;DHT22;17169;50.966;11.038;2023-05-07T11:31:08;14.50;99.90
30381;DHT22;17169;50.966;11.038;2023-05-07T11:34:11;14.60;99.90
30381;DHT22;17169;50.966;11.038;2023-05-07T11:37:18;14.70;99.90
30381;DHT22;17169;50.966;11.038;2023-05-07T11:40:21;14.80;99.90
30381;DHT22;17169;50.966;11.038;2023-05-07T11:43:23;15.00;99.90
30381;DHT22;17169;50.966;11.038;2023-05-07T11:46:27;15.00;99.90
30381;DHT22;17169;50.966;11.038;2023-05-07T11:49:30;15.20;99.90
30381;DHT22;17169;50.966;11.038;2023-05-07T11:52:34;15.20;99.90
30381;DHT22;17169;50.966;11.038;2023-05-07T11:55:36;15.20;99.90
30381;DHT22;17169;50.966;11.038;2023-05-07T11:58:39;15.20;99.90
30381;DHT22;17169;50.966;11.038;2023-05-07T12:01:45;15.20;99.90
30381;DHT22;17169;50.966;11.038;2023-05-07T12:04:48;15.20;99.90
30381;DHT22;17169;50.966;11.038;2023-05-07T12:07:57;15.20;99.90
30381;DHT22;17169;50.966;11.038;2023-05-07T12:10:59;15.30;99.90
30381;DHT22;17169;50.966;11.038;2023-05-07T12:14:01;15.30;99.90
30381;DHT22;17169;50.966;11.038;2023-05-07T12:17:05;15.30;99.90
30381;DHT22;17169;50.966;11.038;2023-05-07T12:20:08;15.30;99.90
30381;DHT22;17169;50.966;11.038;2023-05-07T12:23:13;15.30;99.90
30381;DHT22;17169;50.966;11.038;2023-05-07T12:26:15;15.20;99.90
30381;DHT22;17169;50.966;11.038;2023-05-07T12:29:21;15.20;99.90
30381;DHT22;17169;50.966;11.038;2023-05-07T12:32:23;15.20;99.90
30381;DHT22;17169;50.966;11.038;2023-05-07T12:35:27;15.20;99.90
30381;DHT22;17169;50.966;11.038;2023-05-07T12:38:35;15.30;99.90
30381;DHT22;17169;50.966;11.038;2023-05-07T12:41:52;15.30;99.90
30381;DHT22;17169;50.966;11.038;2023-05-07T12:44:55;15.40;99.90
30381;DHT22;17169;50.966;11.038;2023-05-07T12:48:01;15.50;99.90
30381;DHT22;17169;50.966;11.038;2023-05-07T12:51:05;15.50;99.90
30381;DHT22;17169;50.966;11.038;2023-05-07T12:54:09;15.60;99.90
30381;DHT22;17169;50.966;11.038;2023-05-07T12:57:12;15.80;99.90
30381;DHT22;17169;50.966;11.038;2023-05-07T13:00:15;15.90;99.90
30381;DHT22;17169;50.966;11.038;2023-05-07T13:03:22;16.10;99.90
30381;DHT22;17169;50.966;11.038;2023-05-07T13:06:25;16.40;99.90
30381;DHT22;17169;50.966;11.038;2023-05-07T13:09:29;16.70;99.90
30381;DHT22;17169;50.966;11.038;2023-05-07T13:12:31;17.00;99.90
30381;DHT22;17169;50.966;11.038;2023-05-07T13:15:33;17.30;99.90
30381;DHT22;17169;50.966;11.038;2023-05-07T13:18:37;17.70;99.90
30381;DHT22;17169;50.966;11.038;2023-05-07T13:21:40;18.20;99.90
30381;DHT22;17169;50.966;11.038;2023-05-07T13:24:44;19.00;99.90
30381;DHT22;17169;50.966;11.038;2023-05-07T13:27:47;19.70;98.50
30381;DHT22;17169;50.966;11.038;2023-05-07T13:30:49;20.20;97.70
30381;DHT22;17169;50.966;11.038;2023-05-07T13:33:53;20.00;96.50
30381;DHT22;17169;50.966;11.038;2023-05-07T13:36:57;19.70;96.50
30381;DHT22;17169;50.966;11.038;2023-05-07T13:40:01;19.70;96.70
30381;DHT22;17169;50.966;11.038;2023-05-07T13:43:06;19.80;96.40
30381;DHT22;17169;50.966;11.038;2023-05-07T13:46:08;19.60;96.00
30381;DHT22;17169;50.966;11.038;2023-05-07T13:49:11;19.30;96.20
30381;DHT22;17169;50.966;11.038;2023-05-07T13:52:14;19.20;96.70
30381;DHT22;17169;50.966;11.038;2023-05-07T13:55:19;19.10;96.90
30381;DHT22;17169;50.966;11.038;2023-05-07T13:58:21;18.90;96.80
30381;DHT22;17169;50.966;11.038;2023-05-07T14:01:24;18.80;97.00
30381;DHT22;17169;50.966;11.038;2023-05-07T14:04:26;18.60;97.10
30381;DHT22;17169;50.966;11.038;2023-05-07T14:07:28;18.40;97.10
30381;DHT22;17169;50.966;11.038;2023-05-07T14:10:32;18.30;97.30
30381;DHT22;17169;50.966;11.038;2023-05-07T14:13:35;18.10;97.80
30381;DHT22;17169;50.966;11.038;2023-05-07T14:16:38;18.00;97.80
30381;DHT22;17169;50.966;11.038;2023-05-07T14:19:40;17.90;98.00
30381;DHT22;17169;50.966;11.038;2023-05-07T14:22:43;18.90;98.50
30381;DHT22;17169;50.966;11.038;2023-05-07T14:25:47;20.40;97.50
30381;DHT22;17169;50.966;11.038;2023-05-07T14:28:49;22.60;95.40
30381;DHT22;17169;50.966;11.038;2023-05-07T14:31:52;24.30;91.70
30381;DHT22;17169;50.966;11.038;2023-05-07T14:34:54;25.50;90.10
30381;DHT22;17169;50.966;11.038;2023-05-07T14:37:57;26.70;88.80
30381;DHT22;17169;50.966;11.038;2023-05-07T14:41:01;28.40;85.60
30381;DHT22;17169;50.966;11.038;2023-05-07T14:44:03;30.10;79.70
30381;DHT22;17169;50.966;11.038;2023-05-07T14:47:06;30.00;74.20
30381;DHT22;17169;50.966;11.038;2023-05-07T14:50:09;31.30;70.70
30381;DHT22;17169;50.966;11.038;2023-05-07T14:53:11;31.70;66.00
30381;DHT22;17169;50.966;11.038;2023-05-07T14:56:15;32.60;64.00
30381;DHT22;17169;50.966;11.038;2023-05-07T14:59:18;33.60;60.90
30381;DHT22;17169;50.966;11.038;2023-05-07T15:02:22;34.60;58.90
30381;DHT22;17169;50.966;11.038;2023-05-07T15:05:24;35.10;54.70
30381;DHT22;17169;50.966;11.038;2023-05-07T15:08:26;35.60;53.20
30381;DHT22;17169;50.966;11.038;2023-05-07T15:11:30;36.50;52.30
30381;DHT22;17169;50.966;11.038;2023-05-07T15:14:33;37.10;50.00
30381;DHT22;17169;50.966;11.038;2023-05-07T15:17:35;37.50;48.60
30381;DHT22;17169;50.966;11.038;2023-05-07T15:20:38;37.20;47.20
30381;DHT22;17169;50.966;11.038;2023-05-07T15:23:41;37.10;46.70
30381;DHT22;17169;50.966;11.038;2023-05-07T15:26:46;37.20;46.90
30381;DHT22;17169;50.966;11.038;2023-05-07T15:29:48;37.70;47.00
30381;DHT22;17169;50.966;11.038;2023-05-07T15:32:51;37.60;46.00
30381;DHT22;17169;50.966;11.038;2023-05-07T15:35:53;36.20;46.00
30381;DHT22;17169;50.966;11.038;2023-05-07T15:38:59;35.60;47.30
30381;DHT22;17169;50.966;11.038;2023-05-07T15:42:05;36.00;46.80
30381;DHT22;17169;50.966;11.038;2023-05-07T15:45:08;35.30;46.60
30381;DHT22;17169;50.966;11.038;2023-05-07T15:48:11;35.20;47.30
30381;DHT22;17169;50.966;11.038;2023-05-07T15:51:14;33.90;47.90
30381;DHT22;17169;50.966;11.038;2023-05-07T15:54:16;33.10;47.70
30381;DHT22;17169;50.966;11.038;2023-05-07T15:57:22;32.50;49.30
30381;DHT22;17169;50.966;11.038;2023-05-07T16:00:26;32.30;49.50
30381;DHT22;17169;50.966;11.038;2023-05-07T16:03:29;32.00;48.90
30381;DHT22;17169;50.966;11.038;2023-05-07T16:06:31;32.40;49.50
30381;DHT22;17169;50.966;11.038;2023-05-07T16:09:34;32.00;50.10
30381;DHT22;17169;50.966;11.038;2023-05-07T16:12:37;30.90;50.00
30381;DHT22;17169;50.966;11.038;2023-05-07T16:15:40;29.50;51.20
30381;DHT22;17169;50.966;11.038;2023-05-07T16:18:42;28.00;53.00
30381;DHT22;17169;50.966;11.038;2023-05-07T16:21:45;27.10;54.70
30381;DHT22;17169;50.966;11.038;2023-05-07T16:24:47;27.40;55.10
30381;DHT22;17169;50.966;11.038;2023-05-07T16:27:52;27.70;55.50
30381;DHT22;17169;50.966;11.038;2023-05-07T16:30:54;28.40;54.10
30381;DHT22;17169;50.966;11.038;2023-05-07T16:33:56;28.10;54.10
30381;DHT22;17169;50.966;11.038;2023-05-07T16:36:59;27.50;54.70
30381;DHT22;17169;50.966;11.038;2023-05-07T16:40:02;27.00;56.10
30381;DHT22;17169;50.966;11.038;2023-05-07T16:43:08;25.80;56.40
30381;DHT22;17169;50.966;11.038;2023-05-07T16:46:11;24.70;58.20
30381;DHT22;17169;50.966;11.038;2023-05-07T16:49:13;23.60;59.40
30381;DHT22;17169;50.966;11.038;2023-05-07T16:52:16;23.20;60.70
30381;DHT22;17169;50.966;11.038;2023-05-07T16:55:18;23.40;61.30
30381;DHT22;17169;50.966;11.038;2023-05-07T16:58:22;23.10;61.20
30381;DHT22;17169;50.966;11.038;2023-05-07T17:01:24;22.70;62.20
30381;DHT22;17169;50.966;11.038;2023-05-07T17:04:27;22.30;63.20
30381;DHT22;17169;50.966;11.038;2023-05-07T17:07:29;22.00;64.20
30381;DHT22;17169;50.966;11.038;2023-05-07T17:10:32;21.90;64.70
30381;DHT22;17169;50.966;11.038;2023-05-07T17:13:35;21.70;65.10
30381;DHT22;17169;50.966;11.038;2023-05-07T17:16:38;21.50;66.10
30381;DHT22;17169;50.966;11.038;2023-05-07T17:19:40;21.10;67.10
30381;DHT22;17169;50.966;11.038;2023-05-07T17:22:42;20.60;67.50
30381;DHT22;17169;50.966;11.038;2023-05-07T17:25:45;20.10;68.30
30381;DHT22;17169;50.966;11.038;2023-05-07T17:28:50;19.80;69.60
30381;DHT22;17169;50.966;11.038;2023-05-07T17:31:52;19.20;70.70
30381;DHT22;17169;50.966;11.038;2023-05-07T17:34:54;18.90;71.90
30381;DHT22;17169;50.966;11.038;2023-05-07T17:37:57;18.60;72.70
30381;DHT22;17169;50.966;11.038;2023-05-07T17:41:00;18.30;73.80
30381;DHT22;17169;50.966;11.038;2023-05-07T17:44:04;18.10;75.10
30381;DHT22;17169;50.966;11.038;2023-05-07T17:47:06;17.80;76.50
30381;DHT22;17169;50.966;11.038;2023-05-07T17:50:10;17.50;77.60
30381;DHT22;17169;50.966;11.038;2023-05-07T17:53:12;17.30;78.90
30381;DHT22;17169;50.966;11.038;2023-05-07T17:56:14;17.00;79.60
30381;DHT22;17169;50.966;11.038;2023-05-07T17:59:18;16.70;80.60
30381;DHT22;17169;50.966;11.038;2023-05-07T18:02:20;16.50;81.10
30381;DHT22;17169;50.966;11.038;2023-05-07T18:05:23;16.30;82.70
30381;DHT22;17169;50.966;11.038;2023-05-07T18:08:25;16.00;83.50
30381;DHT22;17169;50.966;11.038;2023-05-07T18:11:28;15.80;84.80
30381;DHT22;17169;50.966;11.038;2023-05-07T18:14:33;15.70;85.90
30381;DHT22;17169;50.966;11.038;2023-05-07T18:17:36;15.50;87.50
30381;DHT22;17169;50.966;11.038;2023-05-07T18:20:39;15.20;88.00
30381;DHT22;17169;50.966;11.038;2023-05-07T18:23:41;15.00;88.70
30381;DHT22;17169;50.966;11.038;2023-05-07T18:26:45;14.90;90.10
30381;DHT22;17169;50.966;11.038;2023-05-07T18:29:50;14.70;90.40
30381;DHT22;17169;50.966;11.038;2023-05-07T18:32:52;14.60;91.10
30381;DHT22;17169;50.966;11.038;2023-05-07T18:35:55;14.40;91.40
30381;DHT22;17169;50.966;11.038;2023-05-07T18:38:57;14.30;92.10
30381;DHT22;17169;50.966;11.038;2023-05-07T18:41:59;14.10;92.40
30381;DHT22;17169;50.966;11.038;2023-05-07T18:45:07;14.00;92.70
30381;DHT22;17169;50.966;11.038;2023-05-07T18:48:09;13.90;93.40
30381;DHT22;17169;50.966;11.038;2023-05-07T18:51:11;13.80;93.80
30381;DHT22;17169;50.966;11.038;2023-05-07T18:54:14;13.70;94.20
30381;DHT22;17169;50.966;11.038;2023-05-07T18:57:16;13.60;94.50
30381;DHT22;17169;50.966;11.038;2023-05-07T19:00:20;13.50;94.90